createdAt,value
2022-10-05T00:10:32.942Z,6.34
2022-10-05T00:40:35.779Z,6.50
2022-10-05T01:10:39.582Z,6.60
2022-10-05T01:40:42.306Z,6.66
2022-10-05T02:10:46.447Z,7.20
2022-10-05T02:40:49.183Z,7.48
2022-10-05T03:10:53.406Z,7.63
2022-10-05T03:40:56.825Z,7.35
2022-10-05T04:11:00.775Z,7.10
2022-10-05T04:41:03.592Z,6.69
2022-10-05T05:11:07.409Z,6.54
2022-10-05T05:41:10.123Z,6.90
2022-10-05T06:11:13.779Z,7.60
2022-10-05T06:41:16.516Z,8.36
2022-10-05T07:11:20.636Z,9.17
2022-10-05T07:41:23.317Z,10.14
2022-10-05T08:11:27.253Z,11.04
2022-10-05T08:41:30.342Z,12.43
2022-10-05T09:11:34.688Z,13.68
2022-10-05T09:41:37.699Z,13.93
2022-10-05T10:11:40.527Z,14.95
2022-10-05T10:41:44.041Z,15.53
2022-10-05T11:11:47.693Z,16.00
2022-10-05T11:41:51.084Z,16.14
2022-10-05T12:11:57.917Z,16.47
2022-10-05T12:42:00.873Z,16.68
2022-10-05T13:12:05.203Z,16.85
2022-10-05T14:10:33.765Z,17.40
2022-10-05T14:40:37.340Z,17.31
2022-10-05T15:10:40.085Z,17.08
2022-10-05T15:40:43.870Z,16.65
2022-10-05T16:10:46.930Z,16.00
2022-10-05T16:40:50.325Z,14.84
2022-10-05T17:10:53.739Z,13.56
2022-10-05T17:40:57.714Z,12.48
2022-10-05T18:11:01.306Z,11.71
2022-10-05T18:41:05.374Z,11.08
2022-10-05T19:11:08.768Z,10.58
2022-10-05T19:41:12.105Z,10.27
2022-10-05T20:11:15.471Z,9.75
2022-10-05T20:41:19.100Z,9.36
2022-10-05T21:11:22.970Z,9.11
2022-10-05T21:41:26.525Z,8.91
2022-10-05T22:11:31.045Z,8.69
2022-10-05T22:41:34.118Z,8.24
2022-10-05T23:11:38.973Z,8.32
2022-10-05T23:41:44.435Z,8.64
